Terminal Aerodrome Forecast
Issued by NWS

Home | Current Version | Previous Version | Text Only | Print | Product List | Glossary Off
Versions: 1 2 3 4 5 6 7 8 9 10 11 12 13 14

000
FTUS43 KABR 201100
TAFMBG
TAF
KMBG 201120Z 2012/2112 10008KT P6SM FEW100
     FM201500 16011KT P6SM SCT100
     FM210000 32008KT P6SM SKC=

USA.gov is the U.S. government's official web portal to all federal, state and local government web resources and services.